Shinsei Maru — JD2188 — position and weather

sailwx.info

Track history (hours):
 
Tides and Currents Weather Stations Pressure Air Temp Water Temp Dewpoint Dewpoint Depression Visibility Wind Speed Wind Dir Waves Ship Positions

Shinsei Maru

Last reported at 2018-Feb-23 16:30 UTC. Time now 2018-Feb-23 16:32 UTC.
Position N 35°23' E 139°45'.

Length 104 m; draft 6.5 m.

Type: Tanker. MMSI: 431301775.

Date/timePositionNaut miles runAvg speedWind from/ knotsBaromVisibWave heightAir tempDewpointWater temp
2018-Feb-23 16:30N 35°23' E 139°45'0 0.1
2018-Feb-23 16:00N 35°24' E 139°45'0 0.0
2018-Feb-23 15:24N 35°24' E 139°45'0 0.1
2018-Feb-23 15:00N 35°24' E 139°45'0 0.0
2018-Feb-23 14:30N 35°24' E 139°45'0 0.0
2018-Feb-23 14:00N 35°24' E 139°45'0 0.0
2018-Feb-23 13:30N 35°24' E 139°45'0 0.0
2018-Feb-23 13:00N 35°24' E 139°45'0 0.0
2018-Feb-23 12:30N 35°24' E 139°45'0 0.1
2018-Feb-23 12:00N 35°24' E 139°45'3 6.8
2018-Feb-23 11:30N 35°23' E 139°41'2 3.2
2018-Feb-23 10:59N 35°24' E 139°40'0 0.0
2018-Feb-23 10:29N 35°24' E 139°40'0 0.0
2018-Feb-23 09:59N 35°24' E 139°40'0 0.0
2018-Feb-23 09:29N 35°24' E 139°40'0 0.0
2018-Feb-23 08:59N 35°24' E 139°40'0 0.0
2018-Feb-23 08:29N 35°24' E 139°40'0 0.0
2018-Feb-23 07:59N 35°24' E 139°40'0 0.0
2018-Feb-23 07:29N 35°24' E 139°40'0 0.0
2018-Feb-23 06:59N 35°24' E 139°40'0 0.0
2018-Feb-23 06:29N 35°24' E 139°40'0 0.0
2018-Feb-23 05:59N 35°24' E 139°40'0 0.0
2018-Feb-23 05:29N 35°24' E 139°40'0 0.0
2018-Feb-23 04:59N 35°24' E 139°40'0 0.0
2018-Feb-23 04:29N 35°24' E 139°40'0 0.0
2018-Feb-23 03:59N 35°24' E 139°40'0 0.0
2018-Feb-23 03:29N 35°24' E 139°40'0 0.0
2018-Feb-23 02:59N 35°24' E 139°40'0 0.0
2018-Feb-23 02:29N 35°24' E 139°40'1 1.5
2018-Feb-23 02:00N 35°24' E 139°39'1 1.2
2018-Feb-23 01:30N 35°23' E 139°40'3 5.5
2018-Feb-23 01:00N 35°24' E 139°43'1 1.1
2018-Feb-23 00:28N 35°23' E 139°44'0 0.0
2018-Feb-22 23:58N 35°23' E 139°44'2 3.9
2018-Feb-22 23:30N 35°25' E 139°45'611.7
2018-Feb-22 23:01N 35°30' E 139°47'1 2.5
2018-Feb-22 22:30N 35°30' E 139°45'0 0.0
2018-Feb-22 21:57N 35°30' E 139°45'0 0.0
2018-Feb-22 21:30N 35°30' E 139°45'0 0.0
2018-Feb-22 21:00N 35°30' E 139°45'0 0.0
2018-Feb-22 20:30N 35°30' E 139°45'0 0.0
2018-Feb-22 20:00N 35°30' E 139°45'0 0.0
2018-Feb-22 19:30N 35°30' E 139°45'0 0.0
2018-Feb-22 18:57N 35°30' E 139°45'0 0.0
2018-Feb-22 18:27N 35°30' E 139°45'0 0.0
2018-Feb-22 17:57N 35°30' E 139°45'0 0.0
2018-Feb-22 17:30N 35°30' E 139°45'0 0.0
2018-Feb-22 17:00N 35°30' E 139°45'0 0.0
2018-Feb-22 16:30N 35°30' E 139°45'0 0.0
2018-Feb-22 16:00N 35°30' E 139°45'0 0.0
2018-Feb-22 15:30N 35°30' E 139°45'0 0.0
2018-Feb-22 15:00N 35°30' E 139°45'0 0.0
2018-Feb-22 14:30N 35°30' E 139°45'0 0.0
2018-Feb-22 14:00N 35°30' E 139°45'0 0.0
2018-Feb-22 13:30N 35°30' E 139°45'0 0.0
2018-Feb-22 13:00N 35°30' E 139°45'0 0.0
2018-Feb-22 12:30N 35°30' E 139°45'0 0.0
2018-Feb-22 11:57N 35°30' E 139°45'0 0.0
2018-Feb-22 11:30N 35°30' E 139°45'0 0.0
2018-Feb-22 11:00N 35°30' E 139°45'0 0.0
2018-Feb-22 10:30N 35°30' E 139°45'0 0.0
2018-Feb-22 10:00N 35°30' E 139°45'0 0.0
2018-Feb-22 09:30N 35°30' E 139°45'0 0.0
2018-Feb-22 09:00N 35°30' E 139°45'0 0.0
2018-Feb-22 08:30N 35°30' E 139°45'0 0.0
2018-Feb-22 08:00N 35°30' E 139°45'0 0.0
2018-Feb-22 07:30N 35°30' E 139°45'0 0.0
2018-Feb-22 07:00N 35°30' E 139°45'0 0.0
2018-Feb-22 06:30N 35°30' E 139°45'0 0.0
2018-Feb-22 06:00N 35°30' E 139°45'0 0.0
2018-Feb-22 05:30N 35°30' E 139°45'0 0.0
2018-Feb-22 05:00N 35°30' E 139°45'0 0.0
2018-Feb-22 04:30N 35°30' E 139°45'0 0.0
2018-Feb-22 04:00N 35°30' E 139°45'0 0.0
2018-Feb-22 03:30N 35°30' E 139°45'0 0.0
2018-Feb-22 03:00N 35°30' E 139°45'0 0.0
2018-Feb-22 02:30N 35°30' E 139°45'0 0.0
2018-Feb-22 02:00N 35°30' E 139°45'0 0.0
2018-Feb-22 01:30N 35°30' E 139°45'0 0.0
2018-Feb-22 01:00N 35°30' E 139°45'0 0.0
2018-Feb-22 00:27N 35°30' E 139°45'0 0.0
2018-Feb-22 00:00N 35°30' E 139°45'0 0.0
2018-Feb-21 23:30N 35°30' E 139°45'0 0.0
2018-Feb-21 23:00N 35°30' E 139°45'0 0.1
2018-Feb-21 22:31N 35°30' E 139°45'3 5.5
2018-Feb-21 22:00N 35°29' E 139°42'4 8.6
2018-Feb-21 21:31N 35°25' E 139°45'1 1.8
2018-Feb-21 20:57N 35°24' E 139°46'0 0.0
2018-Feb-21 20:27N 35°24' E 139°46'0 0.0
2018-Feb-21 20:00N 35°24' E 139°46'0 0.0
2018-Feb-21 19:30N 35°24' E 139°46'0 0.0
2018-Feb-21 19:00N 35°24' E 139°46'0 0.1
2018-Feb-21 18:30N 35°24' E 139°45'0 0.0
2018-Feb-21 18:00N 35°24' E 139°45'0 0.4
2018-Feb-21 17:30N 35°24' E 139°46'510.6
2018-Feb-21 17:00N 35°19' E 139°44'612.2
2018-Feb-21 16:30N 35°14' E 139°47'713.4
2018-Feb-21 16:00N 35°07' E 139°45'713.9
2018-Feb-21 15:30N 35°02' E 139°39'813.6
2018-Feb-21 14:54N 34°57' E 139°32'613.5
2018-Feb-21 14:29N 34°53' E 139°26'1913.8
2018-Feb-21 13:07N 34°41' E 139°09'312.7
2018-Feb-21 12:54N 34°39' E 139°06'512.6
2018-Feb-21 12:30N 34°35' E 139°02'712.9
2018-Feb-21 11:57N 34°33' E 138°53'613.3
2018-Feb-21 11:30N 34°36' E 138°47'612.5
2018-Feb-21 11:00N 34°41' E 138°42'612.7
2018-Feb-21 10:30N 34°47' E 138°39'713.8
2018-Feb-21 10:00N 34°53' E 138°36'713.6
2018-Feb-21 09:30N 34°59' E 138°33'4 7.3
2018-Feb-21 09:00N 35°02' E 138°30'0 0.0
2018-Feb-21 08:30N 35°02' E 138°30'0 0.0
2018-Feb-21 08:00N 35°02' E 138°30'0 0.0
2018-Feb-21 07:30N 35°02' E 138°30'0 0.0
2018-Feb-21 07:00N 35°02' E 138°30'0 0.0
2018-Feb-21 06:30N 35°02' E 138°30'0 0.0
2018-Feb-21 06:00N 35°02' E 138°30'0 0.0
2018-Feb-21 05:30N 35°02' E 138°30'0 0.0
2018-Feb-21 05:00N 35°02' E 138°30'0 0.0
2018-Feb-21 04:30N 35°02' E 138°30'0 0.0
2018-Feb-21 04:00N 35°02' E 138°30'0 0.0
2018-Feb-21 03:30N 35°02' E 138°30'0 0.0
2018-Feb-21 03:00N 35°02' E 138°30'0 0.0
2018-Feb-21 02:30N 35°02' E 138°30'0 0.0
2018-Feb-21 02:00N 35°02' E 138°30'0 0.0
2018-Feb-21 01:30N 35°02' E 138°30'0 0.0
2018-Feb-21 01:00N 35°02' E 138°30'0 0.0
2018-Feb-21 00:30N 35°02' E 138°30'0 0.0
2018-Feb-21 00:00N 35°02' E 138°30'0 0.0
2018-Feb-20 23:30N 35°02' E 138°30'0 0.6
2018-Feb-20 23:00N 35°02' E 138°30'1 2.1
2018-Feb-20 22:28N 35°02' E 138°32'0 0.0
2018-Feb-20 21:58N 35°02' E 138°32'0 0.0
2018-Feb-20 21:28N 35°02' E 138°32'0 0.0
2018-Feb-20 20:58N 35°02' E 138°32'0 0.1
2018-Feb-20 20:28N 35°02' E 138°32'0 0.1
2018-Feb-20 19:58N 35°02' E 138°32'0 0.1
2018-Feb-20 19:28N 35°02' E 138°32'0 0.0
2018-Feb-20 18:58N 35°02' E 138°32'0 0.0
2018-Feb-20 18:28N 35°02' E 138°32'0 0.1
2018-Feb-20 18:00N 35°02' E 138°32'3 6.0
2018-Feb-20 17:30N 34°59' E 138°34'713.5
2018-Feb-20 16:59N 34°53' E 138°37'713.3
2018-Feb-20 16:30N 34°47' E 138°40'612.5
2018-Feb-20 15:59N 34°41' E 138°43'811.2
2018-Feb-20 15:18N 34°35' E 138°49'510.0
2018-Feb-20 14:48N 34°34' E 138°54'3 9.1
2018-Feb-20 14:30N 34°33' E 138°58'611.0
2018-Feb-20 13:57N 34°37' E 139°03'1112.9
2018-Feb-20 13:07N 34°45' E 139°12'212.2
2018-Feb-20 12:57N 34°47' E 139°14'612.9
2018-Feb-20 12:28N 34°51' E 139°19'913.0
2018-Feb-20 11:46N 34°57' E 139°28'412.9
2018-Feb-20 11:29N 34°59' E 139°31'612.9
2018-Feb-20 10:59N 35°03' E 139°37'713.5
2018-Feb-20 10:30N 35°08' E 139°43'713.2
2018-Feb-20 10:01N 35°14' E 139°46'612.8
2018-Feb-20 09:30N 35°20' E 139°43'612.2
2018-Feb-20 09:01N 35°26' E 139°44'510.7
2018-Feb-20 08:31N 35°30' E 139°47'1 2.4
2018-Feb-20 07:55N 35°31' E 139°46'0 0.0
2018-Feb-20 07:28N 35°31' E 139°46'0 0.0
2018-Feb-20 06:58N 35°31' E 139°46'0 0.0
2018-Feb-20 06:28N 35°31' E 139°46'0 0.0
2018-Feb-20 05:58N 35°31' E 139°46'0 0.0
2018-Feb-20 05:25N 35°31' E 139°46'0 0.0
2018-Feb-20 04:58N 35°31' E 139°46'0 0.0
2018-Feb-20 04:19N 35°31' E 139°46'0 0.0
2018-Feb-20 03:46N 35°31' E 139°46'0 0.0
2018-Feb-20 03:25N 35°31' E 139°46'0 0.0
2018-Feb-20 02:58N 35°31' E 139°46'1 2.0
2018-Feb-20 02:30N 35°30' E 139°45'4 7.8
2018-Feb-20 02:01N 35°27' E 139°43'3 6.8
2018-Feb-20 01:30N 35°28' E 139°47'2 3.4
2018-Feb-20 01:00N 35°29' E 139°49'0 0.0
2018-Feb-20 00:24N 35°29' E 139°49'0 0.0
2018-Feb-20 00:00N 35°29' E 139°49'0 0.1
2018-Feb-19 23:21N 35°29' E 139°49'0 0.1
2018-Feb-19 22:48N 35°29' E 139°49'0 0.1
2018-Feb-19 22:27N 35°29' E 139°49'0 0.0
2018-Feb-19 22:00N 35°29' E 139°49'0 0.0
2018-Feb-19 21:30N 35°29' E 139°49'0 0.0
2018-Feb-19 21:00N 35°29' E 139°49'0 0.1
2018-Feb-19 20:30N 35°29' E 139°49'0 0.0
2018-Feb-19 19:45N 35°29' E 139°49'0 0.0
2018-Feb-19 19:30N 35°29' E 139°49'0 0.1
2018-Feb-19 19:00N 35°29' E 139°49'0 0.0
2018-Feb-19 18:24N 35°29' E 139°49'0 0.0
2018-Feb-19 18:00N 35°29' E 139°49'0 0.0
2018-Feb-19 17:30N 35°29' E 139°49'0 0.0
2018-Feb-19 16:51N 35°29' E 139°49'0 0.1
2018-Feb-19 16:30N 35°29' E 139°49'0 0.1
2018-Feb-19 15:57N 35°29' E 139°49'0 0.1
2018-Feb-19 15:30N 35°29' E 139°49'0 0.0
2018-Feb-19 15:00N 35°29' E 139°49'0 0.0
2018-Feb-19 14:30N 35°29' E 139°49'0 0.0
2018-Feb-19 14:00N 35°29' E 139°49'0 0.0
2018-Feb-19 13:30N 35°29' E 139°49'0 0.0
2018-Feb-19 13:00N 35°29' E 139°49'0 0.0
2018-Feb-19 12:30N 35°29' E 139°49'0 0.0
2018-Feb-19 12:00N 35°29' E 139°49'0 0.0
2018-Feb-19 11:30N 35°29' E 139°49'0 0.0
2018-Feb-19 11:00N 35°29' E 139°49'0 0.0
2018-Feb-19 10:30N 35°29' E 139°49'0 0.1
2018-Feb-19 09:57N 35°29' E 139°49'0 0.1
2018-Feb-19 09:30N 35°29' E 139°49'0 0.0
2018-Feb-19 09:00N 35°29' E 139°49'0 0.0
2018-Feb-19 08:30N 35°29' E 139°49'0 0.0
2018-Feb-19 08:00N 35°29' E 139°49'0 0.0
2018-Feb-19 07:30N 35°29' E 139°49'0 0.0
2018-Feb-19 07:00N 35°29' E 139°49'0 0.0
2018-Feb-19 06:30N 35°29' E 139°49'0 0.1
2018-Feb-19 06:00N 35°29' E 139°49'0 0.0
2018-Feb-19 05:30N 35°29' E 139°49'1 2.1
2018-Feb-19 05:01N 35°30' E 139°48'2 3.1
2018-Feb-19 04:29N 35°31' E 139°46'0 0.0
2018-Feb-19 03:56N 35°31' E 139°46'0 0.0
2018-Feb-19 03:29N 35°31' E 139°46'0 0.0
2018-Feb-19 02:59N 35°31' E 139°46'0 0.0
2018-Feb-19 02:29N 35°31' E 139°46'0 0.0
2018-Feb-19 01:56N 35°31' E 139°46'0 0.0
2018-Feb-19 01:26N 35°31' E 139°46'0 0.0
2018-Feb-19 00:56N 35°31' E 139°46'0 0.0
2018-Feb-19 00:26N 35°31' E 139°46'0 0.0
2018-Feb-18 23:59N 35°31' E 139°46'0 0.0
2018-Feb-18 23:29N 35°31' E 139°46'0 0.0
2018-Feb-18 22:56N 35°31' E 139°46'1 1.7
2018-Feb-18 22:31N 35°30' E 139°46'4 7.4
2018-Feb-18 22:00N 35°28' E 139°43'4 7.7
2018-Feb-18 21:31N 35°24' E 139°45'0 0.2
2018-Feb-18 20:58N 35°24' E 139°45'0 0.1
2018-Feb-18 20:28N 35°24' E 139°45'0 0.0
2018-Feb-18 19:58N 35°24' E 139°45'0 0.0
2018-Feb-18 19:28N 35°24' E 139°45'0 0.1
2018-Feb-18 18:59N 35°24' E 139°45'0 0.0
2018-Feb-18 18:29N 35°24' E 139°45'0 0.0
2018-Feb-18 17:59N 35°24' E 139°45'0 0.0
2018-Feb-18 17:29N 35°24' E 139°45'0 0.0
2018-Feb-18 16:59N 35°24' E 139°45'0 0.0
2018-Feb-18 16:29N 35°24' E 139°45'0 0.0
2018-Feb-18 15:59N 35°24' E 139°45'0 0.0
2018-Feb-18 15:29N 35°24' E 139°45'0 0.0
2018-Feb-18 14:59N 35°24' E 139°45'0 0.0
2018-Feb-18 14:29N 35°24' E 139°45'0 0.0
2018-Feb-18 13:59N 35°24' E 139°45'0 0.0
2018-Feb-18 13:29N 35°24' E 139°45'0 0.0
2018-Feb-18 12:59N 35°24' E 139°45'0 0.0
2018-Feb-18 12:26N 35°24' E 139°45'0 0.0
2018-Feb-18 11:59N 35°24' E 139°45'0 0.0
2018-Feb-18 11:29N 35°24' E 139°45'0 0.0
2018-Feb-18 10:59N 35°24' E 139°45'0 0.0
2018-Feb-18 10:29N 35°24' E 139°45'0 0.0
2018-Feb-18 09:59N 35°24' E 139°45'0 0.0
2018-Feb-18 09:29N 35°24' E 139°45'0 0.1
2018-Feb-18 08:59N 35°24' E 139°45'0 0.2
2018-Feb-18 08:29N 35°24' E 139°45'0 0.1
2018-Feb-18 07:59N 35°24' E 139°45'1 1.1
2018-Feb-18 07:31N 35°24' E 139°45'4 8.4
2018-Feb-18 07:01N 35°24' E 139°40'0 0.2
2018-Feb-18 06:28N 35°24' E 139°40'0 0.0
2018-Feb-18 05:58N 35°24' E 139°40'0 0.0
2018-Feb-18 05:28N 35°24' E 139°40'0 0.0
2018-Feb-18 04:58N 35°24' E 139°40'0 0.0
2018-Feb-18 04:28N 35°24' E 139°40'0 0.0
2018-Feb-18 03:58N 35°24' E 139°40'0 0.0
2018-Feb-18 03:28N 35°24' E 139°40'0 0.0
2018-Feb-18 02:58N 35°24' E 139°40'0 0.0
2018-Feb-18 02:25N 35°24' E 139°40'0 0.0
2018-Feb-18 01:58N 35°24' E 139°40'0 0.0
2018-Feb-18 01:28N 35°24' E 139°40'0 0.0
2018-Feb-18 00:58N 35°24' E 139°40'0 0.0
2018-Feb-18 00:28N 35°24' E 139°40'0 0.0
2018-Feb-17 23:58N 35°24' E 139°40'0 0.1
2018-Feb-17 23:28N 35°24' E 139°40'1 2.4
2018-Feb-17 23:00N 35°23' E 139°40'1 1.2
2018-Feb-17 22:28N 35°23' E 139°40'0 0.0
2018-Feb-17 21:58N 35°23' E 139°40'0 0.0
2018-Feb-17 21:28N 35°23' E 139°40'0 0.0
2018-Feb-17 20:58N 35°23' E 139°40'0 0.0
2018-Feb-17 20:28N 35°23' E 139°40'0 0.0
2018-Feb-17 19:58N 35°23' E 139°40'0 0.0
2018-Feb-17 19:28N 35°23' E 139°40'0 0.0
2018-Feb-17 18:58N 35°23' E 139°40'0 0.0
2018-Feb-17 18:28N 35°23' E 139°40'0 0.0
2018-Feb-17 17:58N 35°23' E 139°40'0 0.0
2018-Feb-17 17:28N 35°23' E 139°40'2 4.4
2018-Feb-17 17:00N 35°21' E 139°42'612.9
2018-Feb-17 16:30N 35°16' E 139°46'612.2
2018-Feb-17 16:00N 35°10' E 139°46'812.5
2018-Feb-17 15:21N 35°03' E 139°40'513.0
2018-Feb-17 14:56N 34°59' E 139°36'2014.6
2018-Feb-17 13:32N 34°46' E 139°16'315.5
2018-Feb-17 13:20N 34°44' E 139°14'515.4
2018-Feb-17 12:59N 34°41' E 139°09'814.4
2018-Feb-17 12:27N 34°36' E 139°02'714.4
2018-Feb-17 12:00N 34°33' E 138°54'714.6
2018-Feb-17 11:30N 34°35' E 138°46'612.7
2018-Feb-17 11:00N 34°40' E 138°42'713.4
2018-Feb-17 10:30N 34°47' E 138°40'714.0
2018-Feb-17 10:01N 34°53' E 138°36'714.0
2018-Feb-17 09:30N 34°60' E 138°33'3 6.8
2018-Feb-17 09:00N 35°02' E 138°30'0 0.1
2018-Feb-17 08:29N 35°02' E 138°30'0 0.0
2018-Feb-17 07:59N 35°02' E 138°30'0 0.0
2018-Feb-17 07:29N 35°02' E 138°30'0 0.0
2018-Feb-17 06:59N 35°02' E 138°30'0 0.0
2018-Feb-17 06:29N 35°02' E 138°30'0 0.0
2018-Feb-17 05:59N 35°02' E 138°30'0 0.0
2018-Feb-17 05:29N 35°02' E 138°30'0 0.0
2018-Feb-17 04:59N 35°02' E 138°30'0 0.0
2018-Feb-17 04:29N 35°02' E 138°30'0 0.0
2018-Feb-17 03:59N 35°02' E 138°30'0 0.0
2018-Feb-17 03:29N 35°02' E 138°30'0 0.0
2018-Feb-17 02:59N 35°02' E 138°30'0 0.0
2018-Feb-17 02:29N 35°02' E 138°30'0 0.0
2018-Feb-17 01:59N 35°02' E 138°30'0 0.0
2018-Feb-17 01:29N 35°02' E 138°30'0 0.0
2018-Feb-17 00:59N 35°02' E 138°30'0 0.0
2018-Feb-17 00:29N 35°02' E 138°30'0 0.0
2018-Feb-16 23:59N 35°02' E 138°30'0 0.0
2018-Feb-16 23:29N 35°02' E 138°30'1 1.7
2018-Feb-16 23:01N 35°02' E 138°31'2 2.8
2018-Feb-16 22:28N 35°03' E 138°32'0 0.0
2018-Feb-16 21:58N 35°03' E 138°32'0 0.0
2018-Feb-16 21:28N 35°03' E 138°32'0 0.0
2018-Feb-16 20:58N 35°03' E 138°32'0 0.0
2018-Feb-16 20:28N 35°03' E 138°32'0 0.0
2018-Feb-16 19:58N 35°03' E 138°32'0 0.0
2018-Feb-16 19:28N 35°03' E 138°32'0 0.0
2018-Feb-16 18:58N 35°03' E 138°32'0 0.1
2018-Feb-16 18:28N 35°03' E 138°32'0 0.1
2018-Feb-16 17:58N 35°03' E 138°32'0 0.1
2018-Feb-16 17:28N 35°03' E 138°32'0 0.1
2018-Feb-16 17:00N 35°03' E 138°32'510.6
2018-Feb-16 16:30N 34°58' E 138°35'713.7
2018-Feb-16 16:00N 34°51' E 138°38'713.4
2018-Feb-16 15:30N 34°45' E 138°41'713.9
2018-Feb-16 14:59N 34°38' E 138°44'612.1
2018-Feb-16 14:30N 34°34' E 138°49'611.2
2018-Feb-16 14:00N 34°33' E 138°56'510.7
2018-Feb-16 13:30N 34°36' E 139°02'611.6
2018-Feb-16 13:00N 34°41' E 139°06'611.6
2018-Feb-16 12:30N 34°45' E 139°11'612.1
2018-Feb-16 12:00N 34°49' E 139°17'1511.7
2018-Feb-16 10:44N 34°59' E 139°30'311.6
2018-Feb-16 10:30N 35°00' E 139°33'613.0
2018-Feb-16 10:00N 35°04' E 139°39'714.0
2018-Feb-16 09:30N 35°10' E 139°45'612.4
2018-Feb-16 09:00N 35°16' E 139°46'611.7
2018-Feb-16 08:30N 35°21' E 139°42'612.9
2018-Feb-16 08:00N 35°27' E 139°45'4 8.4
2018-Feb-16 07:29N 35°31' E 139°46'0 0.5
2018-Feb-16 06:58N 35°31' E 139°46'0 0.0
2018-Feb-16 06:25N 35°31' E 139°46'0 0.0
2018-Feb-16 05:49N 35°31' E 139°46'0 0.0
2018-Feb-16 05:28N 35°31' E 139°46'0 0.0
2018-Feb-16 04:58N 35°31' E 139°46'0 0.0
2018-Feb-16 04:28N 35°31' E 139°46'0 0.0
2018-Feb-16 03:58N 35°31' E 139°46'0 0.0
2018-Feb-16 03:29N 35°31' E 139°46'0 0.0
2018-Feb-16 02:58N 35°31' E 139°46'0 0.2
2018-Feb-16 02:21N 35°31' E 139°46'0 0.3
2018-Feb-16 02:00N 35°31' E 139°46'0 0.0
2018-Feb-16 01:30N 35°31' E 139°46'0 0.0
2018-Feb-16 01:00N 35°31' E 139°46'0 0.0
2018-Feb-16 00:30N 35°31' E 139°46'0 0.1
2018-Feb-15 23:51N 35°31' E 139°46'1 1.9
2018-Feb-15 23:30N 35°30' E 139°46'4 8.0
2018-Feb-15 23:00N 35°27' E 139°43'4 8.0
2018-Feb-15 22:30N 35°24' E 139°45'0 0.9
2018-Feb-15 22:00N 35°23' E 139°45'1 1.9
2018-Feb-15 21:30N 35°23' E 139°45'5 9.4
2018-Feb-15 21:00N 35°18' E 139°44'611.3
2018-Feb-15 20:30N 35°13' E 139°47'612.6
2018-Feb-15 20:00N 35°07' E 139°45'713.3
2018-Feb-15 19:30N 35°02' E 139°39'813.7
2018-Feb-15 18:54N 34°56' E 139°32'615.0
2018-Feb-15 18:29N 34°53' E 139°26'815.2
2018-Feb-15 17:59N 34°48' E 139°18'1014.4
2018-Feb-15 17:18N 34°41' E 139°10'413.8
2018-Feb-15 17:01N 34°39' E 139°06'913.6
2018-Feb-15 16:22N 34°33' E 138°58'513.9
2018-Feb-15 16:00N 34°32' E 138°52'714.6
2018-Feb-15 15:29N 34°32' E 138°43'714.6
2018-Feb-15 14:59N 34°32' E 138°34'7714.0
2018-Feb-15 09:30N 34°33' E 137°01'713.3
2018-Feb-15 08:58N 34°38' E 136°54'613.5
2018-Feb-15 08:30N 34°42' E 136°49'713.9
2018-Feb-15 08:00N 34°49' E 136°46'713.8
2018-Feb-15 07:31N 34°55' E 136°46'713.3
2018-Feb-15 07:00N 35°01' E 136°50'3 4.9
2018-Feb-15 06:23N 35°04' E 136°52'0 0.0
2018-Feb-15 05:59N 35°04' E 136°52'0 0.0
2018-Feb-15 05:29N 35°04' E 136°52'0 0.0
2018-Feb-15 04:59N 35°04' E 136°52'0 0.0
2018-Feb-15 04:29N 35°04' E 136°52'0 0.0
2018-Feb-15 03:59N 35°04' E 136°52'0 0.0
2018-Feb-15 03:29N 35°04' E 136°52'0 0.0
2018-Feb-15 02:59N 35°04' E 136°52'0 0.0
2018-Feb-15 02:29N 35°04' E 136°52'0 0.0
2018-Feb-15 01:59N 35°04' E 136°52'0 0.1
2018-Feb-15 01:30N 35°04' E 136°52'4 8.4
2018-Feb-15 01:00N 34°60' E 136°50'612.4
2018-Feb-15 00:30N 34°54' E 136°47'612.6
2018-Feb-15 00:00N 34°48' E 136°48'612.6
2018-Feb-14 23:30N 34°42' E 136°51'913.1
2018-Feb-14 22:51N 34°36' E 136°58'4012.8
2018-Feb-14 19:44N 34°33' E 137°46'313.7
2018-Feb-14 19:29N 34°33' E 137°50'613.2
2018-Feb-14 19:00N 34°33' E 137°58'612.6
2018-Feb-14 18:30N 34°33' E 138°06'611.5
2018-Feb-14 18:00N 34°33' E 138°13'611.4
2018-Feb-14 17:26N 34°33' E 138°20'512.2
2018-Feb-14 17:00N 34°33' E 138°27'611.9
2018-Feb-14 16:30N 34°33' E 138°34'712.2
2018-Feb-14 15:56N 34°33' E 138°43'511.5
2018-Feb-14 15:29N 34°33' E 138°49'510.6
2018-Feb-14 15:00N 34°33' E 138°55'5 9.9
2018-Feb-14 14:29N 34°35' E 139°01'510.6
2018-Feb-14 14:00N 34°39' E 139°05'810.4
2018-Feb-14 13:16N 34°44' E 139°12'3 9.8
2018-Feb-14 13:00N 34°46' E 139°14'5 9.9
2018-Feb-14 12:30N 34°50' E 139°18'10 9.2
2018-Feb-14 11:23N 34°57' E 139°27'4 9.2
2018-Feb-14 10:59N 34°59' E 139°31'5 9.8
2018-Feb-14 10:30N 35°02' E 139°35'611.5
2018-Feb-14 10:00N 35°06' E 139°40'611.5
2018-Feb-14 09:30N 35°11' E 139°44'510.2
2018-Feb-14 09:01N 35°15' E 139°46'612.9
2018-Feb-14 08:30N 35°21' E 139°43'611.8
2018-Feb-14 08:00N 35°27' E 139°46'4 8.2
2018-Feb-14 07:30N 35°31' E 139°46'0 0.6
2018-Feb-14 06:55N 35°31' E 139°46'0 0.0
2018-Feb-14 06:29N 35°31' E 139°46'0 0.0
2018-Feb-14 05:55N 35°31' E 139°46'0 0.0
2018-Feb-14 05:25N 35°31' E 139°46'0 0.0
2018-Feb-14 04:58N 35°31' E 139°46'0 0.0
2018-Feb-14 04:19N 35°31' E 139°46'0 0.0
2018-Feb-14 03:58N 35°31' E 139°46'0 0.0
2018-Feb-14 03:25N 35°31' E 139°46'0 0.0
2018-Feb-14 02:55N 35°31' E 139°46'0 0.0
2018-Feb-14 02:22N 35°31' E 139°46'0 0.0
2018-Feb-14 01:55N 35°31' E 139°46'0 0.0
2018-Feb-14 01:25N 35°31' E 139°46'0 0.0
2018-Feb-14 00:55N 35°31' E 139°46'0 0.0
2018-Feb-14 00:25N 35°31' E 139°46'0 0.0
2018-Feb-13 23:58N 35°31' E 139°46'0 0.3
2018-Feb-13 23:30N 35°31' E 139°46'2 3.7
2018-Feb-13 23:00N 35°30' E 139°44'3 5.3
2018-Feb-13 22:30N 35°27' E 139°44'4 7.7
2018-Feb-13 22:01N 35°29' E 139°49'0 0.1
2018-Feb-13 21:30N 35°29' E 139°49'0 0.0
2018-Feb-13 21:00N 35°29' E 139°49'0 0.0
2018-Feb-13 20:30N 35°29' E 139°49'0 0.0
2018-Feb-13 20:00N 35°29' E 139°49'0 0.1
2018-Feb-13 19:30N 35°29' E 139°49'0 0.1
2018-Feb-13 19:00N 35°29' E 139°49'0 0.0
2018-Feb-13 18:30N 35°29' E 139°49'0 0.1
2018-Feb-13 18:00N 35°29' E 139°49'0 0.0
2018-Feb-13 17:30N 35°29' E 139°49'0 0.0
2018-Feb-13 16:57N 35°29' E 139°49'  
Track history (hours):
 
Tides and Currents Weather Stations Pressure Air Temp Water Temp Dewpoint Dewpoint Depression Visibility Wind Speed Wind Dir Waves Ship Positions

Shinsei Maru

Last reported at 2018-Feb-23 16:30 UTC. Time now 2018-Feb-23 16:32 UTC.
Position N 35°23' E 139°45'.

Length 104 m; draft 6.5 m.

Type: Tanker. MMSI: 431301775.

Date/timePositionNaut miles runAvg speedWind from/ knotsBaromVisibWave heightAir tempDewpointWater temp
2018-Feb-23 16:30N 35°23' E 139°45'0 0.1
2018-Feb-23 16:00N 35°24' E 139°45'0 0.0
2018-Feb-23 15:24N 35°24' E 139°45'0 0.1
2018-Feb-23 15:00N 35°24' E 139°45'0 0.0
2018-Feb-23 14:30N 35°24' E 139°45'0 0.0
2018-Feb-23 14:00N 35°24' E 139°45'0 0.0
2018-Feb-23 13:30N 35°24' E 139°45'0 0.0
2018-Feb-23 13:00N 35°24' E 139°45'0 0.0
2018-Feb-23 12:30N 35°24' E 139°45'0 0.1
2018-Feb-23 12:00N 35°24' E 139°45'3 6.8
2018-Feb-23 11:30N 35°23' E 139°41'2 3.2
2018-Feb-23 10:59N 35°24' E 139°40'0 0.0
2018-Feb-23 10:29N 35°24' E 139°40'0 0.0
2018-Feb-23 09:59N 35°24' E 139°40'0 0.0
2018-Feb-23 09:29N 35°24' E 139°40'0 0.0
2018-Feb-23 08:59N 35°24' E 139°40'0 0.0
2018-Feb-23 08:29N 35°24' E 139°40'0 0.0
2018-Feb-23 07:59N 35°24' E 139°40'0 0.0
2018-Feb-23 07:29N 35°24' E 139°40'0 0.0
2018-Feb-23 06:59N 35°24' E 139°40'0 0.0
2018-Feb-23 06:29N 35°24' E 139°40'0 0.0
2018-Feb-23 05:59N 35°24' E 139°40'0 0.0
2018-Feb-23 05:29N 35°24' E 139°40'0 0.0
2018-Feb-23 04:59N 35°24' E 139°40'0 0.0
2018-Feb-23 04:29N 35°24' E 139°40'0 0.0
2018-Feb-23 03:59N 35°24' E 139°40'0 0.0
2018-Feb-23 03:29N 35°24' E 139°40'0 0.0
2018-Feb-23 02:59N 35°24' E 139°40'0 0.0
2018-Feb-23 02:29N 35°24' E 139°40'1 1.5
2018-Feb-23 02:00N 35°24' E 139°39'1 1.2
2018-Feb-23 01:30N 35°23' E 139°40'3 5.5
2018-Feb-23 01:00N 35°24' E 139°43'1 1.1
2018-Feb-23 00:28N 35°23' E 139°44'0 0.0
2018-Feb-22 23:58N 35°23' E 139°44'2 3.9
2018-Feb-22 23:30N 35°25' E 139°45'611.7
2018-Feb-22 23:01N 35°30' E 139°47'1 2.5
2018-Feb-22 22:30N 35°30' E 139°45'0 0.0
2018-Feb-22 21:57N 35°30' E 139°45'0 0.0
2018-Feb-22 21:30N 35°30' E 139°45'0 0.0
2018-Feb-22 21:00N 35°30' E 139°45'0 0.0
2018-Feb-22 20:30N 35°30' E 139°45'0 0.0
2018-Feb-22 20:00N 35°30' E 139°45'0 0.0
2018-Feb-22 19:30N 35°30' E 139°45'0 0.0
2018-Feb-22 18:57N 35°30' E 139°45'0 0.0
2018-Feb-22 18:27N 35°30' E 139°45'0 0.0
2018-Feb-22 17:57N 35°30' E 139°45'0 0.0
2018-Feb-22 17:30N 35°30' E 139°45'0 0.0
2018-Feb-22 17:00N 35°30' E 139°45'0 0.0
2018-Feb-22 16:30N 35°30' E 139°45'0 0.0
2018-Feb-22 16:00N 35°30' E 139°45'0 0.0
2018-Feb-22 15:30N 35°30' E 139°45'0 0.0
2018-Feb-22 15:00N 35°30' E 139°45'0 0.0
2018-Feb-22 14:30N 35°30' E 139°45'0 0.0
2018-Feb-22 14:00N 35°30' E 139°45'0 0.0
2018-Feb-22 13:30N 35°30' E 139°45'0 0.0
2018-Feb-22 13:00N 35°30' E 139°45'0 0.0
2018-Feb-22 12:30N 35°30' E 139°45'0 0.0
2018-Feb-22 11:57N 35°30' E 139°45'0 0.0
2018-Feb-22 11:30N 35°30' E 139°45'0 0.0
2018-Feb-22 11:00N 35°30' E 139°45'0 0.0
2018-Feb-22 10:30N 35°30' E 139°45'0 0.0
2018-Feb-22 10:00N 35°30' E 139°45'0 0.0
2018-Feb-22 09:30N 35°30' E 139°45'0 0.0
2018-Feb-22 09:00N 35°30' E 139°45'0 0.0
2018-Feb-22 08:30N 35°30' E 139°45'0 0.0
2018-Feb-22 08:00N 35°30' E 139°45'0 0.0
2018-Feb-22 07:30N 35°30' E 139°45'0 0.0
2018-Feb-22 07:00N 35°30' E 139°45'0 0.0
2018-Feb-22 06:30N 35°30' E 139°45'0 0.0
2018-Feb-22 06:00N 35°30' E 139°45'0 0.0
2018-Feb-22 05:30N 35°30' E 139°45'0 0.0
2018-Feb-22 05:00N 35°30' E 139°45'0 0.0
2018-Feb-22 04:30N 35°30' E 139°45'0 0.0
2018-Feb-22 04:00N 35°30' E 139°45'0 0.0
2018-Feb-22 03:30N 35°30' E 139°45'0 0.0
2018-Feb-22 03:00N 35°30' E 139°45'0 0.0
2018-Feb-22 02:30N 35°30' E 139°45'0 0.0
2018-Feb-22 02:00N 35°30' E 139°45'0 0.0
2018-Feb-22 01:30N 35°30' E 139°45'0 0.0
2018-Feb-22 01:00N 35°30' E 139°45'0 0.0
2018-Feb-22 00:27N 35°30' E 139°45'0 0.0
2018-Feb-22 00:00N 35°30' E 139°45'0 0.0
2018-Feb-21 23:30N 35°30' E 139°45'0 0.0
2018-Feb-21 23:00N 35°30' E 139°45'0 0.1
2018-Feb-21 22:31N 35°30' E 139°45'3 5.5
2018-Feb-21 22:00N 35°29' E 139°42'4 8.6
2018-Feb-21 21:31N 35°25' E 139°45'1 1.8
2018-Feb-21 20:57N 35°24' E 139°46'0 0.0
2018-Feb-21 20:27N 35°24' E 139°46'0 0.0
2018-Feb-21 20:00N 35°24' E 139°46'0 0.0
2018-Feb-21 19:30N 35°24' E 139°46'0 0.0
2018-Feb-21 19:00N 35°24' E 139°46'0 0.1
2018-Feb-21 18:30N 35°24' E 139°45'0 0.0
2018-Feb-21 18:00N 35°24' E 139°45'0 0.4
2018-Feb-21 17:30N 35°24' E 139°46'510.6
2018-Feb-21 17:00N 35°19' E 139°44'612.2
2018-Feb-21 16:30N 35°14' E 139°47'713.4
2018-Feb-21 16:00N 35°07' E 139°45'713.9
2018-Feb-21 15:30N 35°02' E 139°39'813.6
2018-Feb-21 14:54N 34°57' E 139°32'613.5
2018-Feb-21 14:29N 34°53' E 139°26'1913.8
2018-Feb-21 13:07N 34°41' E 139°09'312.7
2018-Feb-21 12:54N 34°39' E 139°06'512.6
2018-Feb-21 12:30N 34°35' E 139°02'712.9
2018-Feb-21 11:57N 34°33' E 138°53'613.3
2018-Feb-21 11:30N 34°36' E 138°47'612.5
2018-Feb-21 11:00N 34°41' E 138°42'612.7
2018-Feb-21 10:30N 34°47' E 138°39'713.8
2018-Feb-21 10:00N 34°53' E 138°36'713.6
2018-Feb-21 09:30N 34°59' E 138°33'4 7.3
2018-Feb-21 09:00N 35°02' E 138°30'0 0.0
2018-Feb-21 08:30N 35°02' E 138°30'0 0.0
2018-Feb-21 08:00N 35°02' E 138°30'0 0.0
2018-Feb-21 07:30N 35°02' E 138°30'0 0.0
2018-Feb-21 07:00N 35°02' E 138°30'0 0.0
2018-Feb-21 06:30N 35°02' E 138°30'0 0.0
2018-Feb-21 06:00N 35°02' E 138°30'0 0.0
2018-Feb-21 05:30N 35°02' E 138°30'0 0.0
2018-Feb-21 05:00N 35°02' E 138°30'0 0.0
2018-Feb-21 04:30N 35°02' E 138°30'0 0.0
2018-Feb-21 04:00N 35°02' E 138°30'0 0.0
2018-Feb-21 03:30N 35°02' E 138°30'0 0.0
2018-Feb-21 03:00N 35°02' E 138°30'0 0.0
2018-Feb-21 02:30N 35°02' E 138°30'0 0.0
2018-Feb-21 02:00N 35°02' E 138°30'0 0.0
2018-Feb-21 01:30N 35°02' E 138°30'0 0.0
2018-Feb-21 01:00N 35°02' E 138°30'0 0.0
2018-Feb-21 00:30N 35°02' E 138°30'0 0.0
2018-Feb-21 00:00N 35°02' E 138°30'0 0.0
2018-Feb-20 23:30N 35°02' E 138°30'0 0.6
2018-Feb-20 23:00N 35°02' E 138°30'1 2.1
2018-Feb-20 22:28N 35°02' E 138°32'0 0.0
2018-Feb-20 21:58N 35°02' E 138°32'0 0.0
2018-Feb-20 21:28N 35°02' E 138°32'0 0.0
2018-Feb-20 20:58N 35°02' E 138°32'0 0.1
2018-Feb-20 20:28N 35°02' E 138°32'0 0.1
2018-Feb-20 19:58N 35°02' E 138°32'0 0.1
2018-Feb-20 19:28N 35°02' E 138°32'0 0.0
2018-Feb-20 18:58N 35°02' E 138°32'0 0.0
2018-Feb-20 18:28N 35°02' E 138°32'0 0.1
2018-Feb-20 18:00N 35°02' E 138°32'3 6.0
2018-Feb-20 17:30N 34°59' E 138°34'713.5
2018-Feb-20 16:59N 34°53' E 138°37'713.3
2018-Feb-20 16:30N 34°47' E 138°40'612.5
2018-Feb-20 15:59N 34°41' E 138°43'811.2
2018-Feb-20 15:18N 34°35' E 138°49'510.0
2018-Feb-20 14:48N 34°34' E 138°54'3 9.1
2018-Feb-20 14:30N 34°33' E 138°58'611.0
2018-Feb-20 13:57N 34°37' E 139°03'1112.9
2018-Feb-20 13:07N 34°45' E 139°12'212.2
2018-Feb-20 12:57N 34°47' E 139°14'612.9
2018-Feb-20 12:28N 34°51' E 139°19'913.0
2018-Feb-20 11:46N 34°57' E 139°28'412.9
2018-Feb-20 11:29N 34°59' E 139°31'612.9
2018-Feb-20 10:59N 35°03' E 139°37'713.5
2018-Feb-20 10:30N 35°08' E 139°43'713.2
2018-Feb-20 10:01N 35°14' E 139°46'612.8
2018-Feb-20 09:30N 35°20' E 139°43'612.2
2018-Feb-20 09:01N 35°26' E 139°44'510.7
2018-Feb-20 08:31N 35°30' E 139°47'1 2.4
2018-Feb-20 07:55N 35°31' E 139°46'0 0.0
2018-Feb-20 07:28N 35°31' E 139°46'0 0.0
2018-Feb-20 06:58N 35°31' E 139°46'0 0.0
2018-Feb-20 06:28N 35°31' E 139°46'0 0.0
2018-Feb-20 05:58N 35°31' E 139°46'0 0.0
2018-Feb-20 05:25N 35°31' E 139°46'0 0.0
2018-Feb-20 04:58N 35°31' E 139°46'0 0.0
2018-Feb-20 04:19N 35°31' E 139°46'0 0.0
2018-Feb-20 03:46N 35°31' E 139°46'0 0.0
2018-Feb-20 03:25N 35°31' E 139°46'0 0.0
2018-Feb-20 02:58N 35°31' E 139°46'1 2.0
2018-Feb-20 02:30N 35°30' E 139°45'4 7.8
2018-Feb-20 02:01N 35°27' E 139°43'3 6.8
2018-Feb-20 01:30N 35°28' E 139°47'2 3.4
2018-Feb-20 01:00N 35°29' E 139°49'0 0.0
2018-Feb-20 00:24N 35°29' E 139°49'0 0.0
2018-Feb-20 00:00N 35°29' E 139°49'0 0.1
2018-Feb-19 23:21N 35°29' E 139°49'0 0.1
2018-Feb-19 22:48N 35°29' E 139°49'0 0.1
2018-Feb-19 22:27N 35°29' E 139°49'0 0.0
2018-Feb-19 22:00N 35°29' E 139°49'0 0.0
2018-Feb-19 21:30N 35°29' E 139°49'0 0.0
2018-Feb-19 21:00N 35°29' E 139°49'0 0.1
2018-Feb-19 20:30N 35°29' E 139°49'0 0.0
2018-Feb-19 19:45N 35°29' E 139°49'0 0.0
2018-Feb-19 19:30N 35°29' E 139°49'0 0.1
2018-Feb-19 19:00N 35°29' E 139°49'0 0.0
2018-Feb-19 18:24N 35°29' E 139°49'0 0.0
2018-Feb-19 18:00N 35°29' E 139°49'0 0.0
2018-Feb-19 17:30N 35°29' E 139°49'0 0.0
2018-Feb-19 16:51N 35°29' E 139°49'0 0.1
2018-Feb-19 16:30N 35°29' E 139°49'0 0.1
2018-Feb-19 15:57N 35°29' E 139°49'0 0.1
2018-Feb-19 15:30N 35°29' E 139°49'0 0.0
2018-Feb-19 15:00N 35°29' E 139°49'0 0.0
2018-Feb-19 14:30N 35°29' E 139°49'0 0.0
2018-Feb-19 14:00N 35°29' E 139°49'0 0.0
2018-Feb-19 13:30N 35°29' E 139°49'0 0.0
2018-Feb-19 13:00N 35°29' E 139°49'0 0.0
2018-Feb-19 12:30N 35°29' E 139°49'0 0.0
2018-Feb-19 12:00N 35°29' E 139°49'0 0.0
2018-Feb-19 11:30N 35°29' E 139°49'0 0.0
2018-Feb-19 11:00N 35°29' E 139°49'0 0.0
2018-Feb-19 10:30N 35°29' E 139°49'0 0.1
2018-Feb-19 09:57N 35°29' E 139°49'0 0.1
2018-Feb-19 09:30N 35°29' E 139°49'0 0.0
2018-Feb-19 09:00N 35°29' E 139°49'0 0.0
2018-Feb-19 08:30N 35°29' E 139°49'0 0.0
2018-Feb-19 08:00N 35°29' E 139°49'0 0.0
2018-Feb-19 07:30N 35°29' E 139°49'0 0.0
2018-Feb-19 07:00N 35°29' E 139°49'0 0.0
2018-Feb-19 06:30N 35°29' E 139°49'0 0.1
2018-Feb-19 06:00N 35°29' E 139°49'0 0.0
2018-Feb-19 05:30N 35°29' E 139°49'1 2.1
2018-Feb-19 05:01N 35°30' E 139°48'2 3.1
2018-Feb-19 04:29N 35°31' E 139°46'0 0.0
2018-Feb-19 03:56N 35°31' E 139°46'0 0.0
2018-Feb-19 03:29N 35°31' E 139°46'0 0.0
2018-Feb-19 02:59N 35°31' E 139°46'0 0.0
2018-Feb-19 02:29N 35°31' E 139°46'0 0.0
2018-Feb-19 01:56N 35°31' E 139°46'0 0.0
2018-Feb-19 01:26N 35°31' E 139°46'0 0.0
2018-Feb-19 00:56N 35°31' E 139°46'0 0.0
2018-Feb-19 00:26N 35°31' E 139°46'0 0.0
2018-Feb-18 23:59N 35°31' E 139°46'0 0.0
2018-Feb-18 23:29N 35°31' E 139°46'0 0.0
2018-Feb-18 22:56N 35°31' E 139°46'1 1.7
2018-Feb-18 22:31N 35°30' E 139°46'4 7.4
2018-Feb-18 22:00N 35°28' E 139°43'4 7.7
2018-Feb-18 21:31N 35°24' E 139°45'0 0.2
2018-Feb-18 20:58N 35°24' E 139°45'0 0.1
2018-Feb-18 20:28N 35°24' E 139°45'0 0.0
2018-Feb-18 19:58N 35°24' E 139°45'0 0.0
2018-Feb-18 19:28N 35°24' E 139°45'0 0.1
2018-Feb-18 18:59N 35°24' E 139°45'0 0.0
2018-Feb-18 18:29N 35°24' E 139°45'0 0.0
2018-Feb-18 17:59N 35°24' E 139°45'0 0.0
2018-Feb-18 17:29N 35°24' E 139°45'0 0.0
2018-Feb-18 16:59N 35°24' E 139°45'0 0.0
2018-Feb-18 16:29N 35°24' E 139°45'0 0.0
2018-Feb-18 15:59N 35°24' E 139°45'0 0.0
2018-Feb-18 15:29N 35°24' E 139°45'0 0.0
2018-Feb-18 14:59N 35°24' E 139°45'0 0.0
2018-Feb-18 14:29N 35°24' E 139°45'0 0.0
2018-Feb-18 13:59N 35°24' E 139°45'0 0.0
2018-Feb-18 13:29N 35°24' E 139°45'0 0.0
2018-Feb-18 12:59N 35°24' E 139°45'0 0.0
2018-Feb-18 12:26N 35°24' E 139°45'0 0.0
2018-Feb-18 11:59N 35°24' E 139°45'0 0.0
2018-Feb-18 11:29N 35°24' E 139°45'0 0.0
2018-Feb-18 10:59N 35°24' E 139°45'0 0.0
2018-Feb-18 10:29N 35°24' E 139°45'0 0.0
2018-Feb-18 09:59N 35°24' E 139°45'0 0.0
2018-Feb-18 09:29N 35°24' E 139°45'0 0.1
2018-Feb-18 08:59N 35°24' E 139°45'0 0.2
2018-Feb-18 08:29N 35°24' E 139°45'0 0.1
2018-Feb-18 07:59N 35°24' E 139°45'1 1.1
2018-Feb-18 07:31N 35°24' E 139°45'4 8.4
2018-Feb-18 07:01N 35°24' E 139°40'0 0.2
2018-Feb-18 06:28N 35°24' E 139°40'0 0.0
2018-Feb-18 05:58N 35°24' E 139°40'0 0.0
2018-Feb-18 05:28N 35°24' E 139°40'0 0.0
2018-Feb-18 04:58N 35°24' E 139°40'0 0.0
2018-Feb-18 04:28N 35°24' E 139°40'0 0.0
2018-Feb-18 03:58N 35°24' E 139°40'0 0.0
2018-Feb-18 03:28N 35°24' E 139°40'0 0.0
2018-Feb-18 02:58N 35°24' E 139°40'0 0.0
2018-Feb-18 02:25N 35°24' E 139°40'0 0.0
2018-Feb-18 01:58N 35°24' E 139°40'0 0.0
2018-Feb-18 01:28N 35°24' E 139°40'0 0.0
2018-Feb-18 00:58N 35°24' E 139°40'0 0.0
2018-Feb-18 00:28N 35°24' E 139°40'0 0.0
2018-Feb-17 23:58N 35°24' E 139°40'0 0.1
2018-Feb-17 23:28N 35°24' E 139°40'1 2.4
2018-Feb-17 23:00N 35°23' E 139°40'1 1.2
2018-Feb-17 22:28N 35°23' E 139°40'0 0.0
2018-Feb-17 21:58N 35°23' E 139°40'0 0.0
2018-Feb-17 21:28N 35°23' E 139°40'0 0.0
2018-Feb-17 20:58N 35°23' E 139°40'0 0.0
2018-Feb-17 20:28N 35°23' E 139°40'0 0.0
2018-Feb-17 19:58N 35°23' E 139°40'0 0.0
2018-Feb-17 19:28N 35°23' E 139°40'0 0.0
2018-Feb-17 18:58N 35°23' E 139°40'0 0.0
2018-Feb-17 18:28N 35°23' E 139°40'0 0.0
2018-Feb-17 17:58N 35°23' E 139°40'0 0.0
2018-Feb-17 17:28N 35°23' E 139°40'2 4.4
2018-Feb-17 17:00N 35°21' E 139°42'612.9
2018-Feb-17 16:30N 35°16' E 139°46'612.2
2018-Feb-17 16:00N 35°10' E 139°46'812.5
2018-Feb-17 15:21N 35°03' E 139°40'513.0
2018-Feb-17 14:56N 34°59' E 139°36'2014.6
2018-Feb-17 13:32N 34°46' E 139°16'315.5
2018-Feb-17 13:20N 34°44' E 139°14'515.4
2018-Feb-17 12:59N 34°41' E 139°09'814.4
2018-Feb-17 12:27N 34°36' E 139°02'714.4
2018-Feb-17 12:00N 34°33' E 138°54'714.6
2018-Feb-17 11:30N 34°35' E 138°46'612.7
2018-Feb-17 11:00N 34°40' E 138°42'713.4
2018-Feb-17 10:30N 34°47' E 138°40'714.0
2018-Feb-17 10:01N 34°53' E 138°36'714.0
2018-Feb-17 09:30N 34°60' E 138°33'3 6.8
2018-Feb-17 09:00N 35°02' E 138°30'0 0.1
2018-Feb-17 08:29N 35°02' E 138°30'0 0.0
2018-Feb-17 07:59N 35°02' E 138°30'0 0.0
2018-Feb-17 07:29N 35°02' E 138°30'0 0.0
2018-Feb-17 06:59N 35°02' E 138°30'0 0.0
2018-Feb-17 06:29N 35°02' E 138°30'0 0.0
2018-Feb-17 05:59N 35°02' E 138°30'0 0.0
2018-Feb-17 05:29N 35°02' E 138°30'0 0.0
2018-Feb-17 04:59N 35°02' E 138°30'0 0.0
2018-Feb-17 04:29N 35°02' E 138°30'0 0.0
2018-Feb-17 03:59N 35°02' E 138°30'0 0.0
2018-Feb-17 03:29N 35°02' E 138°30'0 0.0
2018-Feb-17 02:59N 35°02' E 138°30'0 0.0
2018-Feb-17 02:29N 35°02' E 138°30'0 0.0
2018-Feb-17 01:59N 35°02' E 138°30'0 0.0
2018-Feb-17 01:29N 35°02' E 138°30'0 0.0
2018-Feb-17 00:59N 35°02' E 138°30'0 0.0
2018-Feb-17 00:29N 35°02' E 138°30'0 0.0
2018-Feb-16 23:59N 35°02' E 138°30'0 0.0
2018-Feb-16 23:29N 35°02' E 138°30'1 1.7
2018-Feb-16 23:01N 35°02' E 138°31'2 2.8
2018-Feb-16 22:28N 35°03' E 138°32'0 0.0
2018-Feb-16 21:58N 35°03' E 138°32'0 0.0
2018-Feb-16 21:28N 35°03' E 138°32'0 0.0
2018-Feb-16 20:58N 35°03' E 138°32'0 0.0
2018-Feb-16 20:28N 35°03' E 138°32'0 0.0
2018-Feb-16 19:58N 35°03' E 138°32'0 0.0
2018-Feb-16 19:28N 35°03' E 138°32'0 0.0
2018-Feb-16 18:58N 35°03' E 138°32'0 0.1
2018-Feb-16 18:28N 35°03' E 138°32'0 0.1
2018-Feb-16 17:58N 35°03' E 138°32'0 0.1
2018-Feb-16 17:28N 35°03' E 138°32'0 0.1
2018-Feb-16 17:00N 35°03' E 138°32'510.6
2018-Feb-16 16:30N 34°58' E 138°35'713.7
2018-Feb-16 16:00N 34°51' E 138°38'713.4
2018-Feb-16 15:30N 34°45' E 138°41'713.9
2018-Feb-16 14:59N 34°38' E 138°44'612.1
2018-Feb-16 14:30N 34°34' E 138°49'611.2
2018-Feb-16 14:00N 34°33' E 138°56'510.7
2018-Feb-16 13:30N 34°36' E 139°02'611.6
2018-Feb-16 13:00N 34°41' E 139°06'611.6
2018-Feb-16 12:30N 34°45' E 139°11'612.1
2018-Feb-16 12:00N 34°49' E 139°17'1511.7
2018-Feb-16 10:44N 34°59' E 139°30'311.6
2018-Feb-16 10:30N 35°00' E 139°33'613.0
2018-Feb-16 10:00N 35°04' E 139°39'714.0
2018-Feb-16 09:30N 35°10' E 139°45'612.4
2018-Feb-16 09:00N 35°16' E 139°46'611.7
2018-Feb-16 08:30N 35°21' E 139°42'612.9
2018-Feb-16 08:00N 35°27' E 139°45'4 8.4
2018-Feb-16 07:29N 35°31' E 139°46'0 0.5
2018-Feb-16 06:58N 35°31' E 139°46'0 0.0
2018-Feb-16 06:25N 35°31' E 139°46'0 0.0
2018-Feb-16 05:49N 35°31' E 139°46'0 0.0
2018-Feb-16 05:28N 35°31' E 139°46'0 0.0
2018-Feb-16 04:58N 35°31' E 139°46'0 0.0
2018-Feb-16 04:28N 35°31' E 139°46'0 0.0
2018-Feb-16 03:58N 35°31' E 139°46'0 0.0
2018-Feb-16 03:29N 35°31' E 139°46'0 0.0
2018-Feb-16 02:58N 35°31' E 139°46'0 0.2
2018-Feb-16 02:21N 35°31' E 139°46'0 0.3
2018-Feb-16 02:00N 35°31' E 139°46'0 0.0
2018-Feb-16 01:30N 35°31' E 139°46'0 0.0
2018-Feb-16 01:00N 35°31' E 139°46'0 0.0
2018-Feb-16 00:30N 35°31' E 139°46'0 0.1
2018-Feb-15 23:51N 35°31' E 139°46'1 1.9
2018-Feb-15 23:30N 35°30' E 139°46'4 8.0
2018-Feb-15 23:00N 35°27' E 139°43'4 8.0
2018-Feb-15 22:30N 35°24' E 139°45'0 0.9
2018-Feb-15 22:00N 35°23' E 139°45'1 1.9
2018-Feb-15 21:30N 35°23' E 139°45'5 9.4
2018-Feb-15 21:00N 35°18' E 139°44'611.3
2018-Feb-15 20:30N 35°13' E 139°47'612.6
2018-Feb-15 20:00N 35°07' E 139°45'713.3
2018-Feb-15 19:30N 35°02' E 139°39'813.7
2018-Feb-15 18:54N 34°56' E 139°32'615.0
2018-Feb-15 18:29N 34°53' E 139°26'815.2
2018-Feb-15 17:59N 34°48' E 139°18'1014.4
2018-Feb-15 17:18N 34°41' E 139°10'413.8
2018-Feb-15 17:01N 34°39' E 139°06'913.6
2018-Feb-15 16:22N 34°33' E 138°58'513.9
2018-Feb-15 16:00N 34°32' E 138°52'714.6
2018-Feb-15 15:29N 34°32' E 138°43'714.6
2018-Feb-15 14:59N 34°32' E 138°34'7714.0
2018-Feb-15 09:30N 34°33' E 137°01'713.3
2018-Feb-15 08:58N 34°38' E 136°54'613.5
2018-Feb-15 08:30N 34°42' E 136°49'713.9
2018-Feb-15 08:00N 34°49' E 136°46'713.8
2018-Feb-15 07:31N 34°55' E 136°46'713.3
2018-Feb-15 07:00N 35°01' E 136°50'3 4.9
2018-Feb-15 06:23N 35°04' E 136°52'0 0.0
2018-Feb-15 05:59N 35°04' E 136°52'0 0.0
2018-Feb-15 05:29N 35°04' E 136°52'0 0.0
2018-Feb-15 04:59N 35°04' E 136°52'0 0.0
2018-Feb-15 04:29N 35°04' E 136°52'0 0.0
2018-Feb-15 03:59N 35°04' E 136°52'0 0.0
2018-Feb-15 03:29N 35°04' E 136°52'0 0.0
2018-Feb-15 02:59N 35°04' E 136°52'0 0.0
2018-Feb-15 02:29N 35°04' E 136°52'0 0.0
2018-Feb-15 01:59N 35°04' E 136°52'0 0.1
2018-Feb-15 01:30N 35°04' E 136°52'4 8.4
2018-Feb-15 01:00N 34°60' E 136°50'612.4
2018-Feb-15 00:30N 34°54' E 136°47'612.6
2018-Feb-15 00:00N 34°48' E 136°48'612.6
2018-Feb-14 23:30N 34°42' E 136°51'913.1
2018-Feb-14 22:51N 34°36' E 136°58'4012.8
2018-Feb-14 19:44N 34°33' E 137°46'313.7
2018-Feb-14 19:29N 34°33' E 137°50'613.2
2018-Feb-14 19:00N 34°33' E 137°58'612.6
2018-Feb-14 18:30N 34°33' E 138°06'611.5
2018-Feb-14 18:00N 34°33' E 138°13'611.4
2018-Feb-14 17:26N 34°33' E 138°20'512.2
2018-Feb-14 17:00N 34°33' E 138°27'611.9
2018-Feb-14 16:30N 34°33' E 138°34'712.2
2018-Feb-14 15:56N 34°33' E 138°43'511.5
2018-Feb-14 15:29N 34°33' E 138°49'510.6
2018-Feb-14 15:00N 34°33' E 138°55'5 9.9
2018-Feb-14 14:29N 34°35' E 139°01'510.6
2018-Feb-14 14:00N 34°39' E 139°05'810.4
2018-Feb-14 13:16N 34°44' E 139°12'3 9.8
2018-Feb-14 13:00N 34°46' E 139°14'5 9.9
2018-Feb-14 12:30N 34°50' E 139°18'10 9.2
2018-Feb-14 11:23N 34°57' E 139°27'4 9.2
2018-Feb-14 10:59N 34°59' E 139°31'5 9.8
2018-Feb-14 10:30N 35°02' E 139°35'611.5
2018-Feb-14 10:00N 35°06' E 139°40'611.5
2018-Feb-14 09:30N 35°11' E 139°44'510.2
2018-Feb-14 09:01N 35°15' E 139°46'612.9
2018-Feb-14 08:30N 35°21' E 139°43'611.8
2018-Feb-14 08:00N 35°27' E 139°46'4 8.2
2018-Feb-14 07:30N 35°31' E 139°46'0 0.6
2018-Feb-14 06:55N 35°31' E 139°46'0 0.0
2018-Feb-14 06:29N 35°31' E 139°46'0 0.0
2018-Feb-14 05:55N 35°31' E 139°46'0 0.0
2018-Feb-14 05:25N 35°31' E 139°46'0 0.0
2018-Feb-14 04:58N 35°31' E 139°46'0 0.0
2018-Feb-14 04:19N 35°31' E 139°46'0 0.0
2018-Feb-14 03:58N 35°31' E 139°46'0 0.0
2018-Feb-14 03:25N 35°31' E 139°46'0 0.0
2018-Feb-14 02:55N 35°31' E 139°46'0 0.0
2018-Feb-14 02:22N 35°31' E 139°46'0 0.0
2018-Feb-14 01:55N 35°31' E 139°46'0 0.0
2018-Feb-14 01:25N 35°31' E 139°46'0 0.0
2018-Feb-14 00:55N 35°31' E 139°46'0 0.0
2018-Feb-14 00:25N 35°31' E 139°46'0 0.0
2018-Feb-13 23:58N 35°31' E 139°46'0 0.3
2018-Feb-13 23:30N 35°31' E 139°46'2 3.7
2018-Feb-13 23:00N 35°30' E 139°44'3 5.3
2018-Feb-13 22:30N 35°27' E 139°44'4 7.7
2018-Feb-13 22:01N 35°29' E 139°49'0 0.1
2018-Feb-13 21:30N 35°29' E 139°49'0 0.0
2018-Feb-13 21:00N 35°29' E 139°49'0 0.0
2018-Feb-13 20:30N 35°29' E 139°49'0 0.0
2018-Feb-13 20:00N 35°29' E 139°49'0 0.1
2018-Feb-13 19:30N 35°29' E 139°49'0 0.1
2018-Feb-13 19:00N 35°29' E 139°49'0 0.0
2018-Feb-13 18:30N 35°29' E 139°49'0 0.1
2018-Feb-13 18:00N 35°29' E 139°49'0 0.0
2018-Feb-13 17:30N 35°29' E 139°49'0 0.0
2018-Feb-13 16:57N 35°29' E 139°49'  

Dump ship's entire track history